sensor_id;sensor_type;location;lat;lon;timestamp;P1;durP1;ratioP1;P2;durP2;ratioP2
56943;SDS011;42848;42.524;12.052;2022-11-14T00:01:08;10.80;;;6.15;;
56943;SDS011;42848;42.524;12.052;2022-11-14T00:03:35;9.20;;;5.97;;
56943;SDS011;42848;42.524;12.052;2022-11-14T00:06:03;9.35;;;6.38;;
56943;SDS011;42848;42.524;12.052;2022-11-14T00:08:30;9.20;;;6.40;;
56943;SDS011;42848;42.524;12.052;2022-11-14T00:10:56;9.68;;;6.25;;
56943;SDS011;42848;42.524;12.052;2022-11-14T00:13:22;8.73;;;6.10;;
56943;SDS011;42848;42.524;12.052;2022-11-14T00:15:48;9.38;;;6.10;;
56943;SDS011;42848;42.524;12.052;2022-11-14T00:18:18;9.02;;;6.00;;
56943;SDS011;42848;42.524;12.052;2022-11-14T00:20:50;9.60;;;5.95;;
56943;SDS011;42848;42.524;12.052;2022-11-14T00:23:17;9.00;;;5.90;;
56943;SDS011;42848;42.524;12.052;2022-11-14T00:25:44;8.40;;;5.90;;
56943;SDS011;42848;42.524;12.052;2022-11-14T00:28:10;8.50;;;5.82;;
56943;SDS011;42848;42.524;12.052;2022-11-14T00:30:36;9.38;;;6.28;;
56943;SDS011;42848;42.524;12.052;2022-11-14T00:33:02;8.80;;;5.78;;
56943;SDS011;42848;42.524;12.052;2022-11-14T00:35:28;8.15;;;5.40;;
56943;SDS011;42848;42.524;12.052;2022-11-14T00:37:53;8.98;;;5.88;;
56943;SDS011;42848;42.524;12.052;2022-11-14T00:40:19;8.70;;;5.82;;
56943;SDS011;42848;42.524;12.052;2022-11-14T00:42:45;9.38;;;6.10;;
56943;SDS011;42848;42.524;12.052;2022-11-14T00:45:11;10.00;;;6.18;;
56943;SDS011;42848;42.524;12.052;2022-11-14T00:47:36;10.20;;;5.85;;
56943;SDS011;42848;42.524;12.052;2022-11-14T00:50:02;8.52;;;5.88;;
56943;SDS011;42848;42.524;12.052;2022-11-14T00:52:29;10.68;;;5.93;;
56943;SDS011;42848;42.524;12.052;2022-11-14T00:54:54;10.15;;;5.93;;
56943;SDS011;42848;42.524;12.052;2022-11-14T00:57:20;10.40;;;5.72;;
56943;SDS011;42848;42.524;12.052;2022-11-14T00:59:46;9.73;;;5.95;;
56943;SDS011;42848;42.524;12.052;2022-11-14T01:02:11;9.43;;;5.93;;
56943;SDS011;42848;42.524;12.052;2022-11-14T01:04:37;8.88;;;5.55;;
56943;SDS011;42848;42.524;12.052;2022-11-14T01:07:03;10.93;;;6.18;;
56943;SDS011;42848;42.524;12.052;2022-11-14T01:09:28;8.35;;;5.30;;
56943;SDS011;42848;42.524;12.052;2022-11-14T01:11:54;9.27;;;5.70;;
56943;SDS011;42848;42.524;12.052;2022-11-14T01:14:20;8.65;;;5.13;;
56943;SDS011;42848;42.524;12.052;2022-11-14T01:16:46;8.90;;;5.38;;
56943;SDS011;42848;42.524;12.052;2022-11-14T01:19:11;9.05;;;5.65;;
56943;SDS011;42848;42.524;12.052;2022-11-14T01:21:37;8.05;;;5.07;;
56943;SDS011;42848;42.524;12.052;2022-11-14T01:24:03;7.68;;;5.07;;
56943;SDS011;42848;42.524;12.052;2022-11-14T01:26:29;8.40;;;5.22;;
56943;SDS011;42848;42.524;12.052;2022-11-14T01:28:54;7.38;;;4.93;;
56943;SDS011;42848;42.524;12.052;2022-11-14T01:31:22;7.35;;;4.72;;
56943;SDS011;42848;42.524;12.052;2022-11-14T01:33:49;7.20;;;4.57;;
56943;SDS011;42848;42.524;12.052;2022-11-14T01:36:16;6.60;;;4.45;;
56943;SDS011;42848;42.524;12.052;2022-11-14T01:38:42;8.05;;;4.75;;
56943;SDS011;42848;42.524;12.052;2022-11-14T01:41:08;7.93;;;4.95;;
56943;SDS011;42848;42.524;12.052;2022-11-14T01:43:38;7.72;;;4.95;;
56943;SDS011;42848;42.524;12.052;2022-11-14T01:46:05;7.15;;;4.63;;
56943;SDS011;42848;42.524;12.052;2022-11-14T01:51:42;7.43;;;4.65;;
56943;SDS011;42848;42.524;12.052;2022-11-14T01:54:28;6.93;;;4.63;;
56943;SDS011;42848;42.524;12.052;2022-11-14T01:56:59;7.45;;;4.57;;
56943;SDS011;42848;42.524;12.052;2022-11-14T01:59:30;6.82;;;4.43;;
56943;SDS011;42848;42.524;12.052;2022-11-14T02:01:59;7.47;;;4.80;;
56943;SDS011;42848;42.524;12.052;2022-11-14T02:04:30;6.82;;;4.53;;
56943;SDS011;42848;42.524;12.052;2022-11-14T02:07:01;7.63;;;4.65;;
56943;SDS011;42848;42.524;12.052;2022-11-14T02:09:29;8.00;;;4.93;;
56943;SDS011;42848;42.524;12.052;2022-11-14T02:12:02;7.17;;;4.83;;
56943;SDS011;42848;42.524;12.052;2022-11-14T02:14:31;8.57;;;4.72;;
56943;SDS011;42848;42.524;12.052;2022-11-14T02:16:58;7.63;;;5.00;;
56943;SDS011;42848;42.524;12.052;2022-11-14T02:19:24;8.00;;;5.25;;
56943;SDS011;42848;42.524;12.052;2022-11-14T02:21:50;7.30;;;5.20;;
56943;SDS011;42848;42.524;12.052;2022-11-14T02:24:15;8.80;;;5.38;;
56943;SDS011;42848;42.524;12.052;2022-11-14T02:26:41;8.85;;;5.60;;
56943;SDS011;42848;42.524;12.052;2022-11-14T02:29:08;8.73;;;5.65;;
56943;SDS011;42848;42.524;12.052;2022-11-14T02:31:35;9.50;;;5.97;;
56943;SDS011;42848;42.524;12.052;2022-11-14T02:34:01;9.43;;;5.50;;
56943;SDS011;42848;42.524;12.052;2022-11-14T02:36:26;9.18;;;5.60;;
56943;SDS011;42848;42.524;12.052;2022-11-14T02:38:52;8.80;;;5.65;;
56943;SDS011;42848;42.524;12.052;2022-11-14T02:41:18;8.02;;;5.65;;
56943;SDS011;42848;42.524;12.052;2022-11-14T02:43:43;9.10;;;5.50;;
56943;SDS011;42848;42.524;12.052;2022-11-14T02:46:09;7.75;;;5.40;;
56943;SDS011;42848;42.524;12.052;2022-11-14T02:48:35;9.15;;;5.55;;
56943;SDS011;42848;42.524;12.052;2022-11-14T02:51:01;9.50;;;5.80;;
56943;SDS011;42848;42.524;12.052;2022-11-14T02:53:27;8.82;;;5.80;;
56943;SDS011;42848;42.524;12.052;2022-11-14T02:55:52;9.23;;;5.95;;
56943;SDS011;42848;42.524;12.052;2022-11-14T02:58:18;8.07;;;5.65;;
56943;SDS011;42848;42.524;12.052;2022-11-14T03:00:44;11.02;;;6.22;;
56943;SDS011;42848;42.524;12.052;2022-11-14T03:03:09;10.02;;;6.30;;
56943;SDS011;42848;42.524;12.052;2022-11-14T03:05:35;9.57;;;6.43;;
56943;SDS011;42848;42.524;12.052;2022-11-14T03:08:01;8.73;;;5.85;;
56943;SDS011;42848;42.524;12.052;2022-11-14T03:10:26;8.88;;;6.18;;
56943;SDS011;42848;42.524;12.052;2022-11-14T03:12:53;8.95;;;6.28;;
56943;SDS011;42848;42.524;12.052;2022-11-14T03:15:20;9.95;;;6.32;;
56943;SDS011;42848;42.524;12.052;2022-11-14T03:17:46;10.02;;;6.43;;
56943;SDS011;42848;42.524;12.052;2022-11-14T03:20:11;9.82;;;5.82;;
56943;SDS011;42848;42.524;12.052;2022-11-14T03:22:37;10.55;;;6.15;;
56943;SDS011;42848;42.524;12.052;2022-11-14T03:25:03;10.05;;;6.35;;
56943;SDS011;42848;42.524;12.052;2022-11-14T03:27:29;9.10;;;6.00;;
56943;SDS011;42848;42.524;12.052;2022-11-14T03:29:54;9.38;;;5.90;;
56943;SDS011;42848;42.524;12.052;2022-11-14T03:32:20;9.20;;;6.13;;
56943;SDS011;42848;42.524;12.052;2022-11-14T03:34:46;8.80;;;5.78;;
56943;SDS011;42848;42.524;12.052;2022-11-14T03:37:11;7.93;;;5.53;;
56943;SDS011;42848;42.524;12.052;2022-11-14T03:39:37;8.60;;;5.60;;
56943;SDS011;42848;42.524;12.052;2022-11-14T03:42:03;8.45;;;5.28;;
56943;SDS011;42848;42.524;12.052;2022-11-14T03:44:28;9.30;;;5.32;;
56943;SDS011;42848;42.524;12.052;2022-11-14T03:46:54;7.85;;;5.15;;
56943;SDS011;42848;42.524;12.052;2022-11-14T03:49:20;7.95;;;5.07;;
56943;SDS011;42848;42.524;12.052;2022-11-14T03:51:45;10.23;;;5.47;;
56943;SDS011;42848;42.524;12.052;2022-11-14T03:54:11;7.95;;;5.30;;
56943;SDS011;42848;42.524;12.052;2022-11-14T03:56:37;7.72;;;5.40;;
56943;SDS011;42848;42.524;12.052;2022-11-14T03:59:03;8.32;;;4.97;;
56943;SDS011;42848;42.524;12.052;2022-11-14T04:01:28;8.60;;;5.30;;
56943;SDS011;42848;42.524;12.052;2022-11-14T04:03:54;7.47;;;5.20;;
56943;SDS011;42848;42.524;12.052;2022-11-14T04:06:20;7.85;;;5.28;;
56943;SDS011;42848;42.524;12.052;2022-11-14T04:08:46;8.48;;;5.03;;
56943;SDS011;42848;42.524;12.052;2022-11-14T04:11:12;8.10;;;4.85;;
56943;SDS011;42848;42.524;12.052;2022-11-14T04:13:37;7.47;;;4.80;;
56943;SDS011;42848;42.524;12.052;2022-11-14T04:16:03;7.78;;;4.70;;
56943;SDS011;42848;42.524;12.052;2022-11-14T04:18:29;6.65;;;4.65;;
56943;SDS011;42848;42.524;12.052;2022-11-14T04:20:54;8.07;;;4.78;;
56943;SDS011;42848;42.524;12.052;2022-11-14T04:23:20;6.90;;;4.82;;
56943;SDS011;42848;42.524;12.052;2022-11-14T04:25:46;7.93;;;5.45;;
56943;SDS011;42848;42.524;12.052;2022-11-14T04:28:12;8.27;;;5.10;;
56943;SDS011;42848;42.524;12.052;2022-11-14T04:30:38;8.32;;;5.10;;
56943;SDS011;42848;42.524;12.052;2022-11-14T04:33:04;7.43;;;5.15;;
56943;SDS011;42848;42.524;12.052;2022-11-14T04:35:30;8.25;;;5.07;;
56943;SDS011;42848;42.524;12.052;2022-11-14T04:37:56;7.40;;;5.03;;
56943;SDS011;42848;42.524;12.052;2022-11-14T04:40:21;7.55;;;5.10;;
56943;SDS011;42848;42.524;12.052;2022-11-14T04:42:47;8.23;;;5.05;;
56943;SDS011;42848;42.524;12.052;2022-11-14T04:45:13;7.93;;;5.03;;
56943;SDS011;42848;42.524;12.052;2022-11-14T04:47:42;8.07;;;5.10;;
56943;SDS011;42848;42.524;12.052;2022-11-14T04:50:08;7.28;;;4.78;;
56943;SDS011;42848;42.524;12.052;2022-11-14T04:52:34;7.45;;;5.10;;
56943;SDS011;42848;42.524;12.052;2022-11-14T04:54:59;10.60;;;4.63;;
56943;SDS011;42848;42.524;12.052;2022-11-14T04:57:25;6.40;;;4.30;;
56943;SDS011;42848;42.524;12.052;2022-11-14T04:59:51;7.40;;;5.00;;
56943;SDS011;42848;42.524;12.052;2022-11-14T05:02:17;8.32;;;4.90;;
56943;SDS011;42848;42.524;12.052;2022-11-14T05:04:42;8.07;;;5.05;;
56943;SDS011;42848;42.524;12.052;2022-11-14T05:07:10;7.65;;;4.80;;
56943;SDS011;42848;42.524;12.052;2022-11-14T05:09:35;7.93;;;5.43;;
56943;SDS011;42848;42.524;12.052;2022-11-14T05:12:04;7.53;;;5.15;;
56943;SDS011;42848;42.524;12.052;2022-11-14T05:14:30;8.55;;;5.22;;
56943;SDS011;42848;42.524;12.052;2022-11-14T05:16:56;8.45;;;5.30;;
56943;SDS011;42848;42.524;12.052;2022-11-14T05:19:22;8.82;;;5.05;;
56943;SDS011;42848;42.524;12.052;2022-11-14T05:21:48;8.50;;;5.28;;
56943;SDS011;42848;42.524;12.052;2022-11-14T05:24:14;7.72;;;5.20;;
56943;SDS011;42848;42.524;12.052;2022-11-14T05:26:39;8.02;;;5.30;;
56943;SDS011;42848;42.524;12.052;2022-11-14T05:29:05;7.30;;;5.07;;
56943;SDS011;42848;42.524;12.052;2022-11-14T05:31:31;7.80;;;5.22;;
56943;SDS011;42848;42.524;12.052;2022-11-14T05:33:57;8.27;;;5.40;;
56943;SDS011;42848;42.524;12.052;2022-11-14T05:36:23;7.38;;;5.03;;
56943;SDS011;42848;42.524;12.052;2022-11-14T05:38:48;7.68;;;4.88;;
56943;SDS011;42848;42.524;12.052;2022-11-14T05:41:15;8.50;;;5.05;;
56943;SDS011;42848;42.524;12.052;2022-11-14T05:43:41;6.72;;;4.57;;
56943;SDS011;42848;42.524;12.052;2022-11-14T05:46:11;7.22;;;4.75;;
56943;SDS011;42848;42.524;12.052;2022-11-14T05:48:38;6.93;;;4.75;;
56943;SDS011;42848;42.524;12.052;2022-11-14T05:51:06;6.45;;;4.68;;
56943;SDS011;42848;42.524;12.052;2022-11-14T05:53:34;6.60;;;4.70;;
56943;SDS011;42848;42.524;12.052;2022-11-14T05:56:00;7.22;;;4.70;;
56943;SDS011;42848;42.524;12.052;2022-11-14T05:58:26;6.45;;;4.43;;
56943;SDS011;42848;42.524;12.052;2022-11-14T06:00:52;6.93;;;4.78;;
56943;SDS011;42848;42.524;12.052;2022-11-14T06:03:30;6.57;;;4.43;;
56943;SDS011;42848;42.524;12.052;2022-11-14T06:06:02;7.07;;;3.80;;
56943;SDS011;42848;42.524;12.052;2022-11-14T06:08:29;6.57;;;3.92;;
56943;SDS011;42848;42.524;12.052;2022-11-14T06:10:56;6.43;;;3.70;;
56943;SDS011;42848;42.524;12.052;2022-11-14T06:13:27;4.43;;;3.10;;
56943;SDS011;42848;42.524;12.052;2022-11-14T06:15:56;5.60;;;3.50;;
56943;SDS011;42848;42.524;12.052;2022-11-14T06:18:23;5.32;;;3.50;;
56943;SDS011;42848;42.524;12.052;2022-11-14T06:20:49;4.72;;;3.15;;
56943;SDS011;42848;42.524;12.052;2022-11-14T06:23:15;4.82;;;3.30;;
56943;SDS011;42848;42.524;12.052;2022-11-14T06:25:40;5.80;;;3.20;;
56943;SDS011;42848;42.524;12.052;2022-11-14T06:28:06;4.68;;;2.72;;
56943;SDS011;42848;42.524;12.052;2022-11-14T06:30:31;4.43;;;2.83;;
56943;SDS011;42848;42.524;12.052;2022-11-14T06:32:57;4.10;;;2.63;;
56943;SDS011;42848;42.524;12.052;2022-11-14T06:35:24;4.45;;;2.30;;
56943;SDS011;42848;42.524;12.052;2022-11-14T06:37:50;4.13;;;2.55;;
56943;SDS011;42848;42.524;12.052;2022-11-14T06:40:15;3.75;;;2.30;;
56943;SDS011;42848;42.524;12.052;2022-11-14T06:42:41;4.47;;;2.58;;
56943;SDS011;42848;42.524;12.052;2022-11-14T06:45:07;2.95;;;2.00;;
56943;SDS011;42848;42.524;12.052;2022-11-14T06:47:33;13.45;;;7.88;;
56943;SDS011;42848;42.524;12.052;2022-11-14T06:49:58;7.60;;;4.82;;
56943;SDS011;42848;42.524;12.052;2022-11-14T06:52:24;3.88;;;2.20;;
56943;SDS011;42848;42.524;12.052;2022-11-14T06:54:50;3.20;;;1.50;;
56943;SDS011;42848;42.524;12.052;2022-11-14T06:57:16;3.53;;;1.85;;
56943;SDS011;42848;42.524;12.052;2022-11-14T06:59:42;3.95;;;2.58;;
56943;SDS011;42848;42.524;12.052;2022-11-14T07:02:11;3.25;;;2.20;;
56943;SDS011;42848;42.524;12.052;2022-11-14T07:04:37;3.30;;;2.00;;
56943;SDS011;42848;42.524;12.052;2022-11-14T07:07:03;3.13;;;2.00;;
56943;SDS011;42848;42.524;12.052;2022-11-14T07:09:28;3.08;;;1.67;;
56943;SDS011;42848;42.524;12.052;2022-11-14T07:11:54;2.50;;;1.50;;
56943;SDS011;42848;42.524;12.052;2022-11-14T07:14:20;2.70;;;1.40;;
56943;SDS011;42848;42.524;12.052;2022-11-14T07:16:45;2.28;;;1.50;;
56943;SDS011;42848;42.524;12.052;2022-11-14T07:19:11;3.47;;;1.92;;
56943;SDS011;42848;42.524;12.052;2022-11-14T07:21:37;4.03;;;2.50;;
56943;SDS011;42848;42.524;12.052;2022-11-14T07:24:04;3.75;;;2.45;;
56943;SDS011;42848;42.524;12.052;2022-11-14T07:26:30;5.35;;;3.63;;
56943;SDS011;42848;42.524;12.052;2022-11-14T07:28:55;9.02;;;5.80;;
56943;SDS011;42848;42.524;12.052;2022-11-14T07:31:21;7.57;;;4.47;;
56943;SDS011;42848;42.524;12.052;2022-11-14T07:33:47;5.78;;;3.80;;
56943;SDS011;42848;42.524;12.052;2022-11-14T07:36:13;5.28;;;2.72;;
56943;SDS011;42848;42.524;12.052;2022-11-14T07:38:39;4.20;;;2.63;;
56943;SDS011;42848;42.524;12.052;2022-11-14T07:41:06;3.83;;;2.45;;
56943;SDS011;42848;42.524;12.052;2022-11-14T07:43:34;3.63;;;2.33;;
56943;SDS011;42848;42.524;12.052;2022-11-14T07:46:00;3.38;;;2.00;;
56943;SDS011;42848;42.524;12.052;2022-11-14T07:48:34;6.60;;;4.47;;
56943;SDS011;42848;42.524;12.052;2022-11-14T07:51:02;4.50;;;2.30;;
56943;SDS011;42848;42.524;12.052;2022-11-14T07:53:29;4.57;;;2.30;;
56943;SDS011;42848;42.524;12.052;2022-11-14T07:55:56;3.22;;;2.03;;
56943;SDS011;42848;42.524;12.052;2022-11-14T07:58:25;3.20;;;1.77;;
56943;SDS011;42848;42.524;12.052;2022-11-14T08:00:51;3.00;;;1.85;;
56943;SDS011;42848;42.524;12.052;2022-11-14T08:03:17;2.65;;;1.80;;
56943;SDS011;42848;42.524;12.052;2022-11-14T08:05:43;3.05;;;1.80;;
56943;SDS011;42848;42.524;12.052;2022-11-14T08:08:09;2.38;;;1.65;;
56943;SDS011;42848;42.524;12.052;2022-11-14T08:10:34;2.95;;;1.85;;
56943;SDS011;42848;42.524;12.052;2022-11-14T08:13:01;2.78;;;1.73;;
56943;SDS011;42848;42.524;12.052;2022-11-14T08:15:29;3.22;;;1.92;;
56943;SDS011;42848;42.524;12.052;2022-11-14T08:17:58;3.15;;;1.75;;
56943;SDS011;42848;42.524;12.052;2022-11-14T08:20:25;2.78;;;1.80;;
56943;SDS011;42848;42.524;12.052;2022-11-14T08:23:09;2.25;;;1.50;;
56943;SDS011;42848;42.524;12.052;2022-11-14T08:25:36;2.88;;;1.80;;
56943;SDS011;42848;42.524;12.052;2022-11-14T08:28:02;2.25;;;1.58;;
56943;SDS011;42848;42.524;12.052;2022-11-14T08:30:27;3.08;;;1.73;;
56943;SDS011;42848;42.524;12.052;2022-11-14T08:32:53;2.80;;;1.60;;
56943;SDS011;42848;42.524;12.052;2022-11-14T08:35:19;2.10;;;1.42;;
56943;SDS011;42848;42.524;12.052;2022-11-14T08:37:45;2.28;;;1.40;;
56943;SDS011;42848;42.524;12.052;2022-11-14T08:40:11;2.45;;;1.73;;
56943;SDS011;42848;42.524;12.052;2022-11-14T08:42:37;3.35;;;1.80;;
56943;SDS011;42848;42.524;12.052;2022-11-14T08:45:03;2.75;;;1.80;;
56943;SDS011;42848;42.524;12.052;2022-11-14T08:47:29;2.65;;;1.80;;
56943;SDS011;42848;42.524;12.052;2022-11-14T08:49:55;2.85;;;1.63;;
56943;SDS011;42848;42.524;12.052;2022-11-14T08:52:20;2.17;;;1.58;;
56943;SDS011;42848;42.524;12.052;2022-11-14T08:54:46;2.35;;;1.67;;
56943;SDS011;42848;42.524;12.052;2022-11-14T08:57:12;2.05;;;1.45;;
56943;SDS011;42848;42.524;12.052;2022-11-14T08:59:39;2.72;;;1.70;;
56943;SDS011;42848;42.524;12.052;2022-11-14T09:02:08;2.42;;;1.80;;
56943;SDS011;42848;42.524;12.052;2022-11-14T09:04:35;2.67;;;1.67;;
56943;SDS011;42848;42.524;12.052;2022-11-14T09:07:01;2.67;;;1.60;;
56943;SDS011;42848;42.524;12.052;2022-11-14T09:09:27;2.22;;;1.40;;
56943;SDS011;42848;42.524;12.052;2022-11-14T09:11:52;2.25;;;1.50;;
56943;SDS011;42848;42.524;12.052;2022-11-14T09:14:18;2.50;;;1.55;;
56943;SDS011;42848;42.524;12.052;2022-11-14T09:16:45;2.75;;;1.73;;
56943;SDS011;42848;42.524;12.052;2022-11-14T09:19:11;3.63;;;1.52;;
56943;SDS011;42848;42.524;12.052;2022-11-14T09:21:37;2.72;;;1.55;;
56943;SDS011;42848;42.524;12.052;2022-11-14T09:24:03;1.90;;;1.35;;
56943;SDS011;42848;42.524;12.052;2022-11-14T09:26:29;3.65;;;1.50;;
56943;SDS011;42848;42.524;12.052;2022-11-14T09:28:55;2.35;;;1.50;;
56943;SDS011;42848;42.524;12.052;2022-11-14T09:31:20;2.35;;;1.45;;
56943;SDS011;42848;42.524;12.052;2022-11-14T09:33:46;2.55;;;1.50;;
56943;SDS011;42848;42.524;12.052;2022-11-14T09:36:12;2.95;;;1.60;;
56943;SDS011;42848;42.524;12.052;2022-11-14T09:38:40;3.53;;;1.60;;
56943;SDS011;42848;42.524;12.052;2022-11-14T09:46:41;5.05;;;2.00;;
56943;SDS011;42848;42.524;12.052;2022-11-14T09:49:56;2.70;;;1.67;;
56943;SDS011;42848;42.524;12.052;2022-11-14T09:57:43;2.35;;;1.42;;
56943;SDS011;42848;42.524;12.052;2022-11-14T10:02:54;5.35;;;3.60;;
56943;SDS011;42848;42.524;12.052;2022-11-14T10:05:40;4.38;;;2.78;;
56943;SDS011;42848;42.524;12.052;2022-11-14T10:17:56;2.17;;;1.58;;
56943;SDS011;42848;42.524;12.052;2022-11-14T10:20:32;3.05;;;1.63;;
56943;SDS011;42848;42.524;12.052;2022-11-14T10:23:24;3.92;;;1.52;;
56943;SDS011;42848;42.524;12.052;2022-11-14T10:28:58;2.72;;;1.30;;
56943;SDS011;42848;42.524;12.052;2022-11-14T10:37:03;1.95;;;0.90;;
56943;SDS011;42848;42.524;12.052;2022-11-14T10:39:41;2.35;;;0.98;;
56943;SDS011;42848;42.524;12.052;2022-11-14T10:42:14;1.92;;;1.13;;
56943;SDS011;42848;42.524;12.052;2022-11-14T10:47:43;1.80;;;1.10;;
56943;SDS011;42848;42.524;12.052;2022-11-14T10:50:17;2.38;;;1.20;;
56943;SDS011;42848;42.524;12.052;2022-11-14T10:52:45;2.90;;;1.42;;
56943;SDS011;42848;42.524;12.052;2022-11-14T10:55:13;2.58;;;1.27;;
56943;SDS011;42848;42.524;12.052;2022-11-14T10:57:42;2.53;;;1.05;;
56943;SDS011;42848;42.524;12.052;2022-11-14T11:00:14;2.33;;;1.00;;
56943;SDS011;42848;42.524;12.052;2022-11-14T11:05:23;27.35;;;13.45;;
56943;SDS011;42848;42.524;12.052;2022-11-14T11:07:52;10.00;;;4.88;;
56943;SDS011;42848;42.524;12.052;2022-11-14T11:10:40;3.80;;;1.70;;
56943;SDS011;42848;42.524;12.052;2022-11-14T11:13:35;3.03;;;2.10;;
56943;SDS011;42848;42.524;12.052;2022-11-14T11:16:05;3.72;;;2.40;;
56943;SDS011;42848;42.524;12.052;2022-11-14T11:18:35;3.28;;;1.73;;
56943;SDS011;42848;42.524;12.052;2022-11-14T11:21:02;3.08;;;1.50;;
56943;SDS011;42848;42.524;12.052;2022-11-14T11:23:30;2.53;;;1.50;;
56943;SDS011;42848;42.524;12.052;2022-11-14T11:26:06;2.15;;;1.50;;
56943;SDS011;42848;42.524;12.052;2022-11-14T11:28:40;4.32;;;2.85;;
56943;SDS011;42848;42.524;12.052;2022-11-14T11:31:09;7.35;;;5.35;;
56943;SDS011;42848;42.524;12.052;2022-11-14T11:33:36;7.70;;;5.93;;
56943;SDS011;42848;42.524;12.052;2022-11-14T11:36:09;3.60;;;1.90;;
56943;SDS011;42848;42.524;12.052;2022-11-14T11:38:39;3.15;;;2.00;;
56943;SDS011;42848;42.524;12.052;2022-11-14T11:41:11;2.70;;;1.67;;
56943;SDS011;42848;42.524;12.052;2022-11-14T11:43:50;3.47;;;2.13;;
56943;SDS011;42848;42.524;12.052;2022-11-14T11:46:26;4.45;;;2.30;;
56943;SDS011;42848;42.524;12.052;2022-11-14T11:49:16;4.70;;;3.15;;
56943;SDS011;42848;42.524;12.052;2022-11-14T11:51:49;7.00;;;3.60;;
56943;SDS011;42848;42.524;12.052;2022-11-14T11:54:19;5.57;;;4.18;;
56943;SDS011;42848;42.524;12.052;2022-11-14T11:56:50;3.30;;;2.25;;
56943;SDS011;42848;42.524;12.052;2022-11-14T11:59:32;3.22;;;2.53;;
56943;SDS011;42848;42.524;12.052;2022-11-14T12:02:02;3.72;;;2.10;;
56943;SDS011;42848;42.524;12.052;2022-11-14T12:04:43;3.22;;;2.00;;
56943;SDS011;42848;42.524;12.052;2022-11-14T12:07:13;3.60;;;2.40;;
56943;SDS011;42848;42.524;12.052;2022-11-14T12:09:42;3.03;;;2.20;;
56943;SDS011;42848;42.524;12.052;2022-11-14T12:12:21;3.72;;;2.72;;
56943;SDS011;42848;42.524;12.052;2022-11-14T12:15:30;4.57;;;3.50;;
56943;SDS011;42848;42.524;12.052;2022-11-14T12:29:11;5.30;;;2.15;;
56943;SDS011;42848;42.524;12.052;2022-11-14T12:31:41;3.55;;;2.00;;
56943;SDS011;42848;42.524;12.052;2022-11-14T12:34:20;8.02;;;5.50;;
56943;SDS011;42848;42.524;12.052;2022-11-14T12:36:56;6.45;;;4.80;;
56943;SDS011;42848;42.524;12.052;2022-11-14T12:39:29;3.17;;;2.00;;
56943;SDS011;42848;42.524;12.052;2022-11-14T12:42:06;2.88;;;2.10;;
56943;SDS011;42848;42.524;12.052;2022-11-14T12:44:39;3.28;;;2.13;;
56943;SDS011;42848;42.524;12.052;2022-11-14T12:49:55;5.05;;;2.63;;
56943;SDS011;42848;42.524;12.052;2022-11-14T12:52:40;6.50;;;3.42;;
56943;SDS011;42848;42.524;12.052;2022-11-14T13:06:22;3.97;;;2.70;;
56943;SDS011;42848;42.524;12.052;2022-11-14T13:08:56;3.10;;;2.10;;
56943;SDS011;42848;42.524;12.052;2022-11-14T13:11:35;3.60;;;2.10;;
56943;SDS011;42848;42.524;12.052;2022-11-14T13:14:27;3.58;;;2.13;;
56943;SDS011;42848;42.524;12.052;2022-11-14T13:20:45;2.72;;;1.88;;
56943;SDS011;42848;42.524;12.052;2022-11-14T13:23:04;6.03;;;3.75;;
56943;SDS011;42848;42.524;12.052;2022-11-14T13:25:30;5.53;;;3.72;;
56943;SDS011;42848;42.524;12.052;2022-11-14T13:27:56;7.32;;;6.05;;
56943;SDS011;42848;42.524;12.052;2022-11-14T13:33:41;4.00;;;2.60;;
56943;SDS011;42848;42.524;12.052;2022-11-14T13:36:20;5.68;;;2.70;;
56943;SDS011;42848;42.524;12.052;2022-11-14T13:47:04;3.75;;;2.50;;
56943;SDS011;42848;42.524;12.052;2022-11-14T13:52:39;4.28;;;2.20;;
56943;SDS011;42848;42.524;12.052;2022-11-14T13:55:16;4.28;;;2.50;;
56943;SDS011;42848;42.524;12.052;2022-11-14T14:05:30;4.22;;;2.60;;
56943;SDS011;42848;42.524;12.052;2022-11-14T14:11:02;4.00;;;2.65;;
56943;SDS011;42848;42.524;12.052;2022-11-14T14:13:42;4.10;;;3.17;;
56943;SDS011;42848;42.524;12.052;2022-11-14T14:19:31;3.30;;;2.33;;
56943;SDS011;42848;42.524;12.052;2022-11-14T14:22:21;5.40;;;3.15;;
56943;SDS011;42848;42.524;12.052;2022-11-14T14:27:45;7.35;;;4.88;;
56943;SDS011;42848;42.524;12.052;2022-11-14T14:30:14;3.80;;;2.65;;
56943;SDS011;42848;42.524;12.052;2022-11-14T14:32:42;5.43;;;2.90;;
56943;SDS011;42848;42.524;12.052;2022-11-14T14:37:52;4.40;;;3.20;;
56943;SDS011;42848;42.524;12.052;2022-11-14T14:40:24;5.97;;;4.30;;
56943;SDS011;42848;42.524;12.052;2022-11-14T14:42:55;3.53;;;2.00;;
56943;SDS011;42848;42.524;12.052;2022-11-14T14:45:22;4.07;;;3.03;;
56943;SDS011;42848;42.524;12.052;2022-11-14T14:48:09;5.88;;;3.97;;
56943;SDS011;42848;42.524;12.052;2022-11-14T14:50:51;16.70;;;10.70;;
56943;SDS011;42848;42.524;12.052;2022-11-14T14:53:18;79.90;;;43.28;;
56943;SDS011;42848;42.524;12.052;2022-11-14T14:55:56;37.22;;;24.58;;
56943;SDS011;42848;42.524;12.052;2022-11-14T14:58:41;31.20;;;21.42;;
56943;SDS011;42848;42.524;12.052;2022-11-14T15:01:14;22.40;;;16.20;;
56943;SDS011;42848;42.524;12.052;2022-11-14T15:04:04;11.90;;;9.32;;
56943;SDS011;42848;42.524;12.052;2022-11-14T15:09:39;6.70;;;4.82;;
56943;SDS011;42848;42.524;12.052;2022-11-14T15:11:52;7.00;;;5.03;;
56943;SDS011;42848;42.524;12.052;2022-11-14T15:14:23;7.60;;;4.43;;
56943;SDS011;42848;42.524;12.052;2022-11-14T15:16:51;9.30;;;4.95;;
56943;SDS011;42848;42.524;12.052;2022-11-14T15:19:21;10.18;;;5.68;;
56943;SDS011;42848;42.524;12.052;2022-11-14T15:22:01;7.97;;;4.97;;
56943;SDS011;42848;42.524;12.052;2022-11-14T15:27:46;20.15;;;13.85;;
56943;SDS011;42848;42.524;12.052;2022-11-14T15:30:24;8.98;;;5.80;;
56943;SDS011;42848;42.524;12.052;2022-11-14T15:32:53;11.80;;;6.32;;
56943;SDS011;42848;42.524;12.052;2022-11-14T15:40:35;5.35;;;3.15;;
56943;SDS011;42848;42.524;12.052;2022-11-14T15:49:08;6.30;;;3.47;;
56943;SDS011;42848;42.524;12.052;2022-11-14T15:52:00;4.90;;;2.67;;
56943;SDS011;42848;42.524;12.052;2022-11-14T15:56:55;98.00;;;47.17;;
56943;SDS011;42848;42.524;12.052;2022-11-14T15:59:23;71.43;;;37.65;;
56943;SDS011;42848;42.524;12.052;2022-11-14T16:01:55;30.25;;;18.20;;
56943;SDS011;42848;42.524;12.052;2022-11-14T16:04:25;17.33;;;10.55;;
56943;SDS011;42848;42.524;12.052;2022-11-14T16:06:55;93.25;;;44.70;;
56943;SDS011;42848;42.524;12.052;2022-11-14T16:09:20;23.92;;;14.43;;
56943;SDS011;42848;42.524;12.052;2022-11-14T16:11:47;28.40;;;16.52;;
56943;SDS011;42848;42.524;12.052;2022-11-14T16:14:12;122.03;;;60.67;;
56943;SDS011;42848;42.524;12.052;2022-11-14T16:16:39;82.38;;;43.83;;
56943;SDS011;42848;42.524;12.052;2022-11-14T16:19:05;136.57;;;70.35;;
56943;SDS011;42848;42.524;12.052;2022-11-14T16:21:31;66.90;;;38.90;;
56943;SDS011;42848;42.524;12.052;2022-11-14T16:23:57;48.83;;;31.00;;
56943;SDS011;42848;42.524;12.052;2022-11-14T16:26:23;22.65;;;13.13;;
56943;SDS011;42848;42.524;12.052;2022-11-14T16:28:52;24.13;;;16.95;;
56943;SDS011;42848;42.524;12.052;2022-11-14T16:31:18;32.78;;;23.35;;
56943;SDS011;42848;42.524;12.052;2022-11-14T16:33:44;22.17;;;14.75;;
56943;SDS011;42848;42.524;12.052;2022-11-14T16:36:10;12.57;;;9.00;;
56943;SDS011;42848;42.524;12.052;2022-11-14T16:38:36;25.88;;;18.92;;
56943;SDS011;42848;42.524;12.052;2022-11-14T16:41:08;24.73;;;17.05;;
56943;SDS011;42848;42.524;12.052;2022-11-14T16:43:34;27.27;;;21.48;;